Time;durP1;ratioP1;P1;durP2;ratioP2;P2;SDS_P1;SDS_P2;PMS_P1;PMS_P2;Temp;Humidity;BMP_temperature;BMP_pressure;BME280_temperature;BME280_humidity;BME280_pressure;Samples;Min_cycle;Max_cycle;Signal;HPM_P1;HPM_P2
2023/04/30 00:00:07;;;;;;;9.07;4.67;;;10.30;99.90;;;;;;4965380;28;20078;-84
2023/04/30 00:02:33;;;;;;;7.30;5.30;;;10.30;99.90;;;;;;4963702;28;20035;-84
2023/04/30 00:04:58;;;;;;;6.83;5.73;;;10.30;99.90;;;;;;4963568;28;20414;-84
2023/04/30 00:07:24;;;;;;;9.17;5.67;;;10.20;99.90;;;;;;4968534;28;20043;-85
2023/04/30 00:09:50;;;;;;;6.80;5.47;;;10.20;99.90;;;;;;4965590;28;20023;-84
2023/04/30 00:12:15;;;;;;;7.03;5.30;;;10.20;99.90;;;;;;4962662;28;20042;-84
2023/04/30 00:14:41;;;;;;;9.43;5.70;;;10.20;99.90;;;;;;4962666;28;20035;-84
2023/04/30 00:17:06;;;;;;;7.77;5.67;;;10.20;99.90;;;;;;4962526;28;20672;-84
2023/04/30 00:19:32;;;;;;;7.20;5.40;;;10.20;99.90;;;;;;4960640;28;20039;-84
2023/04/30 00:22:00;;;;;;;8.37;5.57;;;10.20;99.90;;;;;;4961900;28;20039;-84
2023/04/30 00:24:26;;;;;;;7.97;5.37;;;10.10;99.90;;;;;;4963104;28;20085;-84
2023/04/30 00:26:51;;;;;;;7.30;5.63;;;10.10;99.90;;;;;;4962442;28;20034;-84
2023/04/30 00:29:17;;;;;;;8.33;6.17;;;10.10;99.90;;;;;;4962030;28;20031;-84
2023/04/30 00:31:42;;;;;;;7.67;5.37;;;10.10;99.90;;;;;;4960390;28;20053;-84
2023/04/30 00:34:08;;;;;;;10.60;5.73;;;10.10;99.90;;;;;;4961902;28;20502;-84
2023/04/30 00:36:33;;;;;;;8.37;6.57;;;10.10;99.90;;;;;;4961831;28;20066;-84
2023/04/30 00:38:59;;;;;;;8.57;6.13;;;10.10;99.90;;;;;;4961927;28;20042;-84
2023/04/30 00:41:26;;;;;;;9.17;6.23;;;10.00;99.90;;;;;;4961933;28;20069;-84
2023/04/30 00:43:51;;;;;;;6.90;5.83;;;10.00;99.90;;;;;;4962834;28;20543;-84
2023/04/30 00:46:17;;;;;;;8.67;6.30;;;10.00;99.90;;;;;;4959754;28;20113;-84
2023/04/30 00:48:42;;;;;;;9.50;7.07;;;10.00;99.90;;;;;;4957335;28;20088;-84
2023/04/30 00:51:08;;;;;;;10.67;8.23;;;10.00;99.90;;;;;;4957162;28;20070;-85
2023/04/30 00:53:35;;;;;;;7.93;6.33;;;10.00;99.90;;;;;;4956979;28;20023;-84
2023/04/30 00:56:00;;;;;;;9.93;6.43;;;9.90;99.90;;;;;;4961014;28;20662;-84
2023/04/30 00:58:26;;;;;;;9.03;6.70;;;9.90;99.90;;;;;;4961616;28;20056;-84
2023/04/30 01:00:52;;;;;;;9.63;6.53;;;9.90;99.90;;;;;;4960291;28;20114;-84
2023/04/30 01:03:18;;;;;;;10.90;7.43;;;10.00;99.90;;;;;;4961067;28;20065;-84
2023/04/30 01:05:44;;;;;;;10.57;7.13;;;10.00;99.90;;;;;;4961740;28;20039;-84
2023/04/30 01:08:10;;;;;;;11.97;6.87;;;9.90;99.90;;;;;;4961213;28;20027;-84
2023/04/30 01:10:43;;;;;;;9.53;6.47;;;10.00;99.90;;;;;;4960548;28;20030;-84
2023/04/30 01:13:20;;;;;;;10.77;6.77;;;10.00;99.90;;;;;;4960464;28;20180;-84
2023/04/30 01:16:09;;;;;;;9.07;6.40;;;10.00;99.90;;;;;;4960131;28;20145;-84
2023/04/30 01:18:46;;;;;;;9.23;6.70;;;10.00;99.90;;;;;;4960033;28;20034;-84
2023/04/30 01:21:14;;;;;;;10.10;7.30;;;10.00;99.90;;;;;;4959368;28;20098;-84
2023/04/30 01:24:14;;;;;;;9.10;6.00;;;10.00;99.90;;;;;;4960189;28;20542;-84
2023/04/30 01:26:51;;;;;;;7.77;5.93;;;10.00;99.90;;;;;;4960208;28;20035;-84
2023/04/30 01:29:19;;;;;;;9.57;6.60;;;10.00;99.90;;;;;;4959112;28;20038;-84
2023/04/30 01:31:45;;;;;;;8.90;6.13;;;10.00;99.90;;;;;;4958360;28;20035;-84
2023/04/30 01:34:10;;;;;;;9.50;7.00;;;9.90;99.90;;;;;;4958506;28;20042;-84
2023/04/30 01:37:04;;;;;;;9.67;6.23;;;9.90;99.90;;;;;;4958471;28;20042;-84
2023/04/30 01:39:47;;;;;;;10.93;7.23;;;9.90;99.90;;;;;;4957204;28;20034;-84
2023/04/30 01:42:20;;;;;;;8.23;6.17;;;9.90;99.90;;;;;;4960103;28;20027;-84
2023/04/30 01:45:16;;;;;;;9.53;6.90;;;9.90;99.90;;;;;;4962518;28;20061;-84
2023/04/30 01:47:49;;;;;;;9.35;7.00;;;9.90;99.90;;;;;;4959051;28;20117;-84
2023/04/30 01:50:23;;;;;;;8.23;6.67;;;9.90;99.90;;;;;;4954447;28;20039;-84
2023/04/30 01:52:59;;;;;;;9.43;6.55;;;9.90;99.90;;;;;;4954397;28;21408;-84
2023/04/30 01:55:41;;;;;;;9.53;7.17;;;9.90;99.90;;;;;;4961624;28;20039;-84
2023/04/30 01:58:11;;;;;;;11.47;7.60;;;9.80;99.90;;;;;;4963099;28;20034;-83
2023/04/30 02:00:36;;;;;;;8.73;6.63;;;9.80;99.90;;;;;;4963319;28;20031;-84
2023/04/30 02:03:02;;;;;;;10.20;7.47;;;9.80;99.90;;;;;;4962560;28;20023;-84
2023/04/30 02:05:28;;;;;;;9.33;7.00;;;9.80;99.90;;;;;;4963273;28;20035;-84
2023/04/30 02:07:53;;;;;;;10.63;7.00;;;9.70;99.90;;;;;;4961353;28;20132;-84
2023/04/30 02:10:21;;;;;;;9.93;7.27;;;9.70;99.90;;;;;;4955990;28;20525;-84
2023/04/30 02:12:47;;;;;;;12.03;7.07;;;9.70;99.90;;;;;;4956218;28;20038;-84
2023/04/30 02:15:14;;;;;;;11.73;7.00;;;9.70;99.90;;;;;;4955865;28;20175;-84
2023/04/30 02:17:39;;;;;;;9.57;7.17;;;9.70;99.90;;;;;;4959032;28;20038;-84
2023/04/30 02:20:06;;;;;;;11.13;7.40;;;9.60;99.90;;;;;;4961556;28;20121;-84
2023/04/30 02:22:32;;;;;;;9.50;7.00;;;9.60;99.90;;;;;;4961528;28;20051;-84
2023/04/30 02:24:57;;;;;;;10.10;7.57;;;9.60;99.90;;;;;;4959064;28;20046;-85
2023/04/30 02:27:27;;;;;;;11.27;7.70;;;9.50;99.90;;;;;;4959515;28;20065;-84
2023/04/30 02:29:53;;;;;;;8.83;7.13;;;9.50;99.90;;;;;;4959691;28;20031;-83
2023/04/30 02:32:18;;;;;;;8.93;6.47;;;9.50;99.90;;;;;;4961946;28;20450;-84
2023/04/30 02:34:44;;;;;;;9.57;6.67;;;9.50;99.90;;;;;;4962048;28;20054;-84
2023/04/30 02:37:10;;;;;;;8.10;6.43;;;9.50;99.90;;;;;;4961744;28;20046;-84
2023/04/30 02:39:36;;;;;;;10.67;6.87;;;9.50;99.90;;;;;;4961496;28;20050;-84
2023/04/30 02:42:01;;;;;;;10.13;6.70;;;9.50;99.90;;;;;;4962385;28;20387;-84
2023/04/30 02:44:27;;;;;;;12.90;6.97;;;9.50;99.90;;;;;;4961504;28;20038;-84
2023/04/30 02:46:53;;;;;;;9.47;7.20;;;9.50;99.90;;;;;;4961823;28;20039;-84
2023/04/30 02:49:18;;;;;;;10.87;7.20;;;9.50;99.90;;;;;;4962502;28;20155;-84
2023/04/30 02:51:44;;;;;;;10.53;7.70;;;9.50;99.90;;;;;;4961743;28;20466;-84
2023/04/30 02:54:10;;;;;;;10.43;7.87;;;9.50;99.90;;;;;;4964659;28;20031;-84
2023/04/30 02:56:35;;;;;;;9.97;7.87;;;9.50;99.90;;;;;;4964810;28;20082;-84
2023/04/30 02:59:01;;;;;;;10.00;7.73;;;9.50;99.90;;;;;;4964563;28;20184;-84
2023/04/30 03:01:26;;;;;;;14.03;8.30;;;9.40;99.90;;;;;;4963850;28;20035;-84
2023/04/30 03:03:52;;;;;;;13.50;8.23;;;9.40;99.90;;;;;;4965611;28;20038;-84
2023/04/30 03:06:17;;;;;;;12.27;8.57;;;9.40;99.90;;;;;;4965412;28;20050;-84
2023/04/30 03:08:43;;;;;;;11.20;8.57;;;9.40;99.90;;;;;;4965731;28;20031;-84
2023/04/30 03:11:08;;;;;;;9.87;8.13;;;9.40;99.90;;;;;;4964717;28;20035;-83
2023/04/30 03:13:34;;;;;;;11.53;8.73;;;9.30;99.90;;;;;;4964457;28;20030;-84
2023/04/30 03:16:00;;;;;;;12.67;8.77;;;9.30;99.90;;;;;;4965273;28;20034;-83
2023/04/30 03:18:27;;;;;;;13.30;8.53;;;9.30;99.90;;;;;;4965255;28;20037;-84
2023/04/30 03:20:53;;;;;;;12.13;8.83;;;9.30;99.90;;;;;;4964937;28;20039;-83
2023/04/30 03:23:18;;;;;;;14.23;10.13;;;9.20;99.90;;;;;;4972007;28;20027;-84
2023/04/30 03:25:44;;;;;;;12.83;9.30;;;9.20;99.90;;;;;;4967218;28;21351;-84
2023/04/30 03:28:09;;;;;;;12.53;9.67;;;9.20;99.90;;;;;;4964207;28;20035;-84
2023/04/30 03:30:35;;;;;;;15.13;9.90;;;9.20;99.90;;;;;;4963497;28;20072;-84
2023/04/30 03:33:00;;;;;;;13.63;10.63;;;9.10;99.90;;;;;;4958633;28;20042;-84
2023/04/30 03:35:26;;;;;;;13.53;9.93;;;9.10;99.90;;;;;;4959148;28;20027;-84
2023/04/30 03:37:52;;;;;;;13.27;9.93;;;9.10;99.90;;;;;;4961015;28;20058;-84
2023/04/30 03:40:17;;;;;;;13.23;9.77;;;9.10;99.90;;;;;;4960627;28;20249;-83
2023/04/30 03:42:43;;;;;;;13.00;9.20;;;9.10;99.90;;;;;;4963650;28;20118;-84
2023/04/30 03:45:08;;;;;;;11.40;8.93;;;9.10;99.90;;;;;;4962822;28;20029;-84
2023/04/30 03:47:35;;;;;;;12.00;9.00;;;9.10;99.90;;;;;;4963692;28;20022;-83
2023/04/30 03:50:02;;;;;;;13.07;8.93;;;9.10;99.90;;;;;;4962829;28;20054;-84
2023/04/30 03:52:28;;;;;;;13.90;9.63;;;9.00;99.90;;;;;;4963002;28;20035;-84
2023/04/30 03:54:54;;;;;;;14.80;9.57;;;9.00;99.90;;;;;;4963254;28;20027;-84
2023/04/30 03:57:20;;;;;;;12.27;9.37;;;9.00;99.90;;;;;;4963000;28;20133;-84
2023/04/30 03:59:46;;;;;;;12.07;9.90;;;9.00;99.90;;;;;;4962842;28;20023;-84
2023/04/30 04:02:11;;;;;;;12.77;10.23;;;8.90;99.90;;;;;;4962833;28;21126;-84
2023/04/30 04:04:37;;;;;;;15.03;11.27;;;8.90;99.90;;;;;;4962820;28;20027;-84
2023/04/30 04:07:03;;;;;;;14.93;10.23;;;8.80;99.90;;;;;;4962037;28;20027;-84
2023/04/30 04:09:29;;;;;;;13.90;10.37;;;8.80;99.90;;;;;;4961878;28;20023;-83
2023/04/30 04:11:55;;;;;;;11.40;8.83;;;8.80;99.90;;;;;;4962518;28;20053;-84
2023/04/30 04:14:20;;;;;;;12.67;9.47;;;8.70;99.90;;;;;;4962161;28;20034;-84
2023/04/30 04:16:46;;;;;;;12.90;9.97;;;8.80;99.90;;;;;;4960319;28;20114;-84
2023/04/30 04:19:12;;;;;;;12.10;9.90;;;8.70;99.90;;;;;;4961785;28;20027;-84
2023/04/30 04:21:38;;;;;;;13.27;9.20;;;8.70;99.90;;;;;;4961689;28;20038;-84
2023/04/30 04:24:07;;;;;;;15.17;11.00;;;8.80;99.90;;;;;;4960824;28;20101;-84
2023/04/30 04:26:34;;;;;;;14.93;10.83;;;8.80;99.90;;;;;;4960287;28;20035;-84
2023/04/30 04:28:59;;;;;;;14.13;10.50;;;8.80;99.90;;;;;;4959411;28;20376;-84
2023/04/30 04:31:25;;;;;;;12.60;10.00;;;8.80;99.90;;;;;;4958861;28;20023;-84
2023/04/30 04:33:56;;;;;;;12.13;9.67;;;8.80;99.90;;;;;;4962379;28;20568;-84
2023/04/30 04:36:22;;;;;;;13.07;10.13;;;8.80;99.90;;;;;;4962572;28;20027;-84
2023/04/30 04:38:48;;;;;;;12.57;9.97;;;8.90;99.90;;;;;;4963347;28;20042;-84
2023/04/30 04:41:13;;;;;;;14.10;9.67;;;8.90;99.90;;;;;;4961647;28;20058;-84
2023/04/30 04:43:39;;;;;;;13.10;10.10;;;8.90;99.90;;;;;;4962988;28;20041;-84
2023/04/30 04:46:07;;;;;;;11.80;9.13;;;8.90;99.90;;;;;;4963670;28;20030;-84
2023/04/30 04:48:33;;;;;;;12.73;9.83;;;8.90;99.90;;;;;;4963816;28;20418;-84
2023/04/30 04:50:58;;;;;;;14.47;9.43;;;9.00;99.90;;;;;;4961944;28;20042;-84
2023/04/30 04:53:24;;;;;;;13.20;10.70;;;9.00;99.90;;;;;;4959717;28;20035;-84
2023/04/30 04:55:50;;;;;;;12.57;9.17;;;9.00;99.90;;;;;;4957826;28;20035;-84
2023/04/30 04:58:15;;;;;;;14.87;11.20;;;9.10;99.90;;;;;;4957419;28;20031;-84
2023/04/30 05:00:41;;;;;;;16.93;13.50;;;9.10;99.90;;;;;;4959837;28;20046;-84
2023/04/30 05:03:08;;;;;;;20.90;16.30;;;9.10;99.90;;;;;;4962324;28;20027;-84
2023/04/30 05:05:34;;;;;;;12.27;10.27;;;9.20;99.90;;;;;;4960738;28;20041;-84
2023/04/30 05:08:00;;;;;;;15.10;10.27;;;9.20;99.90;;;;;;4960875;28;20038;-84
2023/04/30 05:10:25;;;;;;;13.30;10.00;;;9.20;99.90;;;;;;4959352;28;20054;-83
2023/04/30 05:12:51;;;;;;;12.33;8.93;;;9.20;99.90;;;;;;4960347;28;20443;-84
2023/04/30 05:15:16;;;;;;;11.07;8.07;;;9.20;99.90;;;;;;4959420;28;20891;-84
2023/04/30 05:17:42;;;;;;;14.27;9.10;;;9.30;99.90;;;;;;4959017;28;20130;-84
2023/04/30 05:20:08;;;;;;;9.97;8.67;;;9.30;99.90;;;;;;4957922;28;20043;-84
2023/04/30 05:22:34;;;;;;;10.67;8.73;;;9.30;99.90;;;;;;4958895;28;20121;-83
2023/04/30 05:24:59;;;;;;;11.30;9.40;;;9.40;99.90;;;;;;4958007;28;20109;-84
2023/04/30 05:27:25;;;;;;;10.17;8.97;;;9.50;99.90;;;;;;4956678;28;20031;-81
2023/04/30 05:29:51;;;;;;;13.40;9.40;;;9.40;99.90;;;;;;4955936;28;20031;-82
2023/04/30 05:32:16;;;;;;;12.93;9.63;;;9.50;99.90;;;;;;4955326;28;20089;-83
2023/04/30 05:34:42;;;;;;;11.30;8.57;;;9.50;99.90;;;;;;4954094;28;20026;-82
2023/04/30 05:37:07;;;;;;;11.83;9.30;;;9.50;99.90;;;;;;4957332;28;20050;-83
2023/04/30 05:39:33;;;;;;;10.37;8.27;;;9.50;99.90;;;;;;4961314;28;20041;-82
2023/04/30 05:41:58;;;;;;;11.00;8.43;;;9.60;99.90;;;;;;4961448;28;20062;-83
2023/04/30 05:44:24;;;;;;;13.73;8.53;;;9.60;99.90;;;;;;4962728;28;20027;-83
2023/04/30 05:46:50;;;;;;;15.80;12.47;;;9.60;99.90;;;;;;4961950;28;20015;-83
2023/04/30 05:49:15;;;;;;;14.80;13.20;;;9.70;99.90;;;;;;4962192;28;20118;-83
2023/04/30 05:51:41;;;;;;;10.77;8.47;;;9.70;99.90;;;;;;4961145;28;20031;-83
2023/04/30 05:54:06;;;;;;;10.97;8.70;;;9.70;99.90;;;;;;4961950;28;20034;-83
2023/04/30 05:56:32;;;;;;;10.23;8.50;;;9.80;99.90;;;;;;4957445;28;20046;-83
2023/04/30 05:58:57;;;;;;;11.17;8.10;;;9.90;99.90;;;;;;4956741;28;20046;-83
2023/04/30 06:01:24;;;;;;;10.20;8.60;;;9.90;99.90;;;;;;4956349;28;20428;-83
2023/04/30 06:03:49;;;;;;;9.30;7.80;;;10.00;99.90;;;;;;4956420;28;20389;-83
2023/04/30 06:06:15;;;;;;;11.27;9.50;;;10.10;99.90;;;;;;4954615;28;20031;-81
2023/04/30 06:08:43;;;;;;;13.03;10.13;;;10.10;99.90;;;;;;4959795;28;20099;-87
2023/04/30 06:11:09;;;;;;;10.87;8.67;;;10.20;99.90;;;;;;4957992;28;20038;-83
2023/04/30 06:13:35;;;;;;;10.37;8.37;;;10.20;99.90;;;;;;4960613;28;20031;-85
2023/04/30 06:16:01;;;;;;;9.70;8.27;;;10.20;99.90;;;;;;4959207;28;20038;-85
2023/04/30 06:18:26;;;;;;;11.17;9.30;;;10.30;99.90;;;;;;4954060;28;20043;-83
2023/04/30 06:20:52;;;;;;;10.80;9.30;;;10.30;99.90;;;;;;4957790;28;20487;-83
2023/04/30 06:23:17;;;;;;;10.13;8.50;;;10.40;99.90;;;;;;4959990;28;20130;-84
2023/04/30 06:25:43;;;;;;;11.37;7.97;;;10.40;99.90;;;;;;4959107;28;20035;-84
2023/04/30 06:28:08;;;;;;;11.77;8.17;;;10.50;99.90;;;;;;4959216;28;20026;-84
2023/04/30 06:30:35;;;;;;;10.73;8.87;;;10.60;99.90;;;;;;4961403;28;20023;-79
2023/04/30 06:33:01;;;;;;;10.17;8.40;;;10.70;99.90;;;;;;4958910;28;20039;-81
2023/04/30 06:35:26;;;;;;;10.90;8.53;;;10.80;99.90;;;;;;4966259;28;20031;-82
2023/04/30 06:37:52;;;;;;;10.23;8.63;;;10.80;99.90;;;;;;4970553;28;20043;-83
2023/04/30 06:40:17;;;;;;;13.83;11.63;;;10.90;99.90;;;;;;4973096;28;20075;-82
2023/04/30 06:42:43;;;;;;;13.17;10.30;;;11.00;99.90;;;;;;4963232;28;20090;-84
2023/04/30 06:45:09;;;;;;;15.07;11.97;;;11.10;99.90;;;;;;4963599;28;20042;-82
2023/04/30 06:47:36;;;;;;;16.80;12.40;;;11.10;99.90;;;;;;4961933;28;20615;-82
2023/04/30 06:50:03;;;;;;;21.27;16.63;;;11.20;99.90;;;;;;4962707;28;20259;-82
2023/04/30 06:52:29;;;;;;;25.55;20.23;;;11.30;99.90;;;;;;4960427;28;20030;-81
2023/04/30 06:54:55;;;;;;;18.33;14.45;;;11.40;99.90;;;;;;4957966;28;20023;-83
2023/04/30 06:57:21;;;;;;;24.13;17.67;;;11.50;99.90;;;;;;4957195;28;20039;-83
2023/04/30 06:59:47;;;;;;;26.40;18.38;;;11.60;99.90;;;;;;4956944;28;20031;-85
2023/04/30 07:02:12;;;;;;;21.50;14.80;;;11.70;99.90;;;;;;4957529;28;20035;-84
2023/04/30 07:04:38;;;;;;;80.53;51.15;;;11.80;99.90;;;;;;4957714;28;20440;-83
2023/04/30 07:07:03;;;;;;;20.02;17.40;;;11.90;99.90;;;;;;4956363;28;20043;-84
2023/04/30 07:09:29;;;;;;;11.60;10.27;;;12.00;99.90;;;;;;4956901;28;21424;-84
2023/04/30 07:11:56;;;;;;;11.82;10.63;;;12.10;99.90;;;;;;4957768;28;20031;-83
2023/04/30 07:14:21;;;;;;;9.50;7.10;;;12.20;99.90;;;;;;4956597;28;20038;-84
2023/04/30 07:16:49;;;;;;;11.05;9.57;;;12.30;99.90;;;;;;4956014;28;20396;-84
2023/04/30 07:19:14;;;;;;;11.05;9.63;;;12.50;99.90;;;;;;4957424;28;20105;-83
2023/04/30 07:21:40;;;;;;;8.18;7.38;;;12.50;99.90;;;;;;4956309;28;20037;-84
2023/04/30 07:24:06;;;;;;;12.50;9.20;;;12.50;99.90;;;;;;4962081;28;20034;-89
2023/04/30 07:28:56;;;;;;;11.05;9.85;;;12.30;99.90;;;;;;5044838;23;20117;-89
2023/04/30 07:31:22;;;;;;;10.15;7.53;;;12.20;99.90;;;;;;4990618;28;20030;-81
2023/04/30 07:33:49;;;;;;;9.75;7.28;;;12.20;99.90;;;;;;4992887;28;20068;-82
2023/04/30 07:36:15;;;;;;;8.63;6.32;;;12.20;99.90;;;;;;4995373;28;20063;-83
2023/04/30 07:38:41;;;;;;;9.52;6.78;;;12.20;99.90;;;;;;4991200;28;20041;-82
2023/04/30 07:41:08;;;;;;;7.22;5.85;;;12.30;99.90;;;;;;4990057;28;20102;-82
2023/04/30 07:43:34;;;;;;;8.80;6.88;;;12.40;99.90;;;;;;4991923;28;20033;-81
2023/04/30 07:45:59;;;;;;;8.68;6.05;;;12.50;99.90;;;;;;4990814;28;20510;-81
2023/04/30 07:48:25;;;;;;;9.15;6.70;;;12.60;99.90;;;;;;4991485;28;20029;-81
2023/04/30 07:50:50;;;;;;;7.75;6.25;;;12.70;99.90;;;;;;4991427;28;20065;-82
2023/04/30 07:53:16;;;;;;;9.57;6.82;;;12.70;99.90;;;;;;4990406;28;20475;-81
2023/04/30 07:55:41;;;;;;;7.93;6.10;;;12.80;99.90;;;;;;4989781;28;20497;-82
2023/04/30 07:58:07;;;;;;;7.35;6.40;;;12.80;99.90;;;;;;4989504;28;20164;-88
2023/04/30 08:00:33;;;;;;;8.15;6.20;;;12.90;99.90;;;;;;4987713;28;20031;-83
2023/04/30 08:02:59;;;;;;;7.85;6.65;;;13.00;99.90;;;;;;4987676;28;20034;-83
2023/04/30 08:05:27;;;;;;;7.55;6.28;;;13.10;99.90;;;;;;4988300;28;20039;-84
2023/04/30 08:07:52;;;;;;;6.47;5.82;;;13.20;99.90;;;;;;4988646;28;20038;-81
2023/04/30 08:10:18;;;;;;;8.48;5.85;;;13.30;99.90;;;;;;4994403;28;20505;-84
2023/04/30 08:12:44;;;;;;;6.55;5.78;;;13.50;99.90;;;;;;4994826;28;20045;-84
2023/04/30 08:15:09;;;;;;;10.00;6.35;;;13.40;99.90;;;;;;4989866;28;20030;-84
2023/04/30 08:17:35;;;;;;;7.75;6.10;;;13.40;99.90;;;;;;4995115;28;20076;-84
2023/04/30 08:20:03;;;;;;;7.15;5.72;;;13.30;99.90;;;;;;4990589;28;20019;-84
2023/04/30 08:22:28;;;;;;;6.78;5.60;;;13.30;99.90;;;;;;4992492;28;20030;-84
2023/04/30 08:24:54;;;;;;;7.60;6.10;;;13.30;99.90;;;;;;4989455;28;20556;-76
2023/04/30 08:27:20;;;;;;;7.13;5.88;;;13.20;99.90;;;;;;4986872;28;20085;-80
2023/04/30 08:29:46;;;;;;;7.88;6.50;;;13.20;99.90;;;;;;4987094;28;20037;-80
2023/04/30 08:32:12;;;;;;;7.38;6.13;;;13.30;99.90;;;;;;4985905;28;20030;-81
2023/04/30 08:34:39;;;;;;;6.75;6.00;;;13.20;99.90;;;;;;4986325;28;20041;-81
2023/04/30 08:37:05;;;;;;;10.55;6.10;;;13.20;99.90;;;;;;4987861;28;20590;-85
2023/04/30 08:39:31;;;;;;;7.38;6.55;;;13.20;99.90;;;;;;4987092;28;20037;-85
2023/04/30 08:42:01;;;;;;;6.97;6.25;;;13.20;99.90;;;;;;4987102;28;20030;-79
2023/04/30 08:44:27;;;;;;;9.73;7.60;;;13.20;99.90;;;;;;4986627;28;20030;-75
2023/04/30 08:46:54;;;;;;;9.45;7.43;;;13.20;99.90;;;;;;4987430;28;20538;-76
2023/04/30 08:49:24;;;;;;;9.48;7.25;;;13.20;99.90;;;;;;4986914;28;20440;-82
2023/04/30 08:51:50;;;;;;;8.68;6.50;;;13.20;99.90;;;;;;4987848;28;20402;-85
2023/04/30 08:54:17;;;;;;;10.38;6.95;;;13.30;99.90;;;;;;4987564;28;20104;-85
2023/04/30 08:56:44;;;;;;;9.55;7.68;;;13.30;99.90;;;;;;4988050;28;20034;-77
2023/04/30 08:59:12;;;;;;;8.45;6.93;;;13.40;99.90;;;;;;4987376;28;20097;-77
2023/04/30 09:01:37;;;;;;;8.75;6.53;;;13.40;99.90;;;;;;4987109;28;20041;-77
2023/04/30 09:04:03;;;;;;;8.70;6.13;;;13.50;99.90;;;;;;4987767;28;20026;-77
2023/04/30 09:06:30;;;;;;;6.47;5.45;;;13.60;99.90;;;;;;4986802;28;20848;-84
2023/04/30 09:08:56;;;;;;;6.50;5.30;;;13.60;99.90;;;;;;4987153;28;20037;-84
2023/04/30 09:11:26;;;;;;;6.40;4.93;;;13.70;99.90;;;;;;4985686;28;20042;-84
2023/04/30 09:13:56;;;;;;;6.28;4.75;;;13.80;99.90;;;;;;4988516;28;20033;-84
2023/04/30 09:16:22;;;;;;;5.15;4.25;;;13.80;99.90;;;;;;4987150;28;20034;-84
2023/04/30 09:18:48;;;;;;;6.22;4.65;;;14.00;99.90;;;;;;4987298;28;20034;-85
2023/04/30 09:21:14;;;;;;;5.68;4.90;;;13.90;99.90;;;;;;4987101;28;20114;-85
2023/04/30 09:24:03;;;;;;;5.57;4.32;;;14.00;99.90;;;;;;4987366;28;20037;-84
2023/04/30 09:26:37;;;;;;;6.00;4.68;;;14.20;99.90;;;;;;4987020;28;20081;-84
2023/04/30 09:29:07;;;;;;;7.13;4.65;;;14.40;99.90;;;;;;4986096;28;20034;-80
2023/04/30 09:31:35;;;;;;;5.70;4.20;;;14.50;99.90;;;;;;4991136;28;20033;-79
2023/04/30 09:34:00;;;;;;;6.22;3.95;;;14.70;99.90;;;;;;4991870;28;20104;-80
2023/04/30 09:36:26;;;;;;;5.10;4.10;;;14.80;99.90;;;;;;4985909;28;20160;-83
2023/04/30 09:38:52;;;;;;;4.93;3.85;;;14.90;99.90;;;;;;4986128;28;20128;-79
2023/04/30 09:41:28;;;;;;;5.65;4.45;;;14.90;99.90;;;;;;4990900;28;20068;-80
2023/04/30 09:43:55;;;;;;;8.07;4.85;;;15.00;99.90;;;;;;4992519;28;20030;-81
2023/04/30 09:46:29;;;;;;;5.97;4.50;;;15.20;99.90;;;;;;4990931;28;20077;-81
2023/04/30 09:49:00;;;;;;;5.50;3.97;;;15.20;99.90;;;;;;4991283;28;21439;-82
2023/04/30 09:51:26;;;;;;;4.75;4.10;;;15.10;99.90;;;;;;4991485;28;20045;-81
2023/04/30 09:53:53;;;;;;;4.55;3.80;;;15.00;99.90;;;;;;4990229;28;20062;-81
2023/04/30 09:56:24;;;;;;;4.45;3.55;;;15.00;99.90;;;;;;4992258;28;20035;-80
2023/04/30 09:58:55;;;;;;;4.75;3.33;;;14.90;99.90;;;;;;4988610;28;20079;-80
2023/04/30 10:01:25;;;;;;;4.60;3.65;;;15.00;99.90;;;;;;4987663;28;20026;-80
2023/04/30 10:03:50;;;;;;;4.20;3.80;;;15.10;99.90;;;;;;4986638;28;20058;-77
2023/04/30 10:06:18;;;;;;;5.80;3.45;;;15.10;99.90;;;;;;4985423;28;20105;-76
2023/04/30 10:08:47;;;;;;;4.75;3.20;;;15.10;99.90;;;;;;4985053;28;20048;-77
2023/04/30 10:11:17;;;;;;;4.15;3.72;;;15.20;99.90;;;;;;4983501;28;20105;-80
2023/04/30 10:14:07;;;;;;;3.70;3.28;;;15.30;99.90;;;;;;4984893;28;20022;-76
2023/04/30 10:16:39;;;;;;;5.93;3.00;;;15.30;99.90;;;;;;4984057;28;20050;-83
2023/04/30 10:19:13;;;;;;;4.50;3.20;;;15.30;99.90;;;;;;4986302;28;20791;-82
2023/04/30 10:21:41;;;;;;;4.40;3.60;;;15.40;99.90;;;;;;4986502;28;20503;-82
2023/04/30 10:24:08;;;;;;;6.55;3.75;;;15.50;99.90;;;;;;4989879;28;20034;-81
2023/04/30 10:26:34;;;;;;;5.47;3.92;;;15.50;99.90;;;;;;4988486;28;20161;-81
2023/04/30 10:29:01;;;;;;;3.80;3.05;;;15.50;99.90;;;;;;4954533;28;1024845;-81
2023/04/30 10:31:27;;;;;;;3.88;3.15;;;15.70;99.90;;;;;;4987054;28;20031;-82
2023/04/30 10:34:05;;;;;;;3.92;3.53;;;15.80;99.90;;;;;;4987074;28;21261;-82
2023/04/30 10:36:41;;;;;;;5.35;3.60;;;15.80;99.90;;;;;;4988321;28;20752;-80
2023/04/30 10:39:07;;;;;;;5.50;3.90;;;15.60;99.90;;;;;;4989934;28;20124;-82
2023/04/30 10:41:33;;;;;;;4.53;3.85;;;15.50;99.90;;;;;;4988780;28;20062;-82
2023/04/30 10:44:01;;;;;;;5.30;4.40;;;15.30;99.90;;;;;;4990240;28;20030;-82
2023/04/30 10:46:27;;;;;;;4.38;3.88;;;15.10;99.90;;;;;;4990505;28;20030;-82
2023/04/30 10:48:54;;;;;;;6.05;3.28;;;15.20;99.90;;;;;;4990635;28;20026;-82
2023/04/30 10:51:20;;;;;;;4.95;3.95;;;15.30;99.90;;;;;;4988685;28;20046;-81
2023/04/30 10:53:49;;;;;;;3.88;3.20;;;15.30;99.90;;;;;;4989655;28;20571;-81
2023/04/30 10:56:30;;;;;;;3.50;3.20;;;15.30;99.90;;;;;;4990370;28;20201;-82
2023/04/30 10:59:00;;;;;;;3.60;2.97;;;15.50;99.90;;;;;;4991250;28;20038;-82
2023/04/30 11:01:27;;;;;;;4.38;3.33;;;15.80;99.90;;;;;;4989244;28;20069;-82
2023/04/30 11:04:10;;;;;;;4.60;3.10;;;16.30;99.90;;;;;;4988011;28;20082;-81
2023/04/30 11:06:53;;;;;;;4.13;2.72;;;16.80;99.90;;;;;;4990414;28;20034;-81
2023/04/30 11:09:33;;;;;;;3.42;2.85;;;16.90;99.90;;;;;;4990167;28;20030;-82
2023/04/30 11:12:13;;;;;;;3.05;2.67;;;16.90;99.90;;;;;;4991007;28;20040;-82
2023/04/30 11:14:43;;;;;;;3.85;2.97;;;17.10;99.90;;;;;;4992283;28;20045;-82
2023/04/30 11:17:11;;;;;;;3.40;2.70;;;17.30;99.90;;;;;;4995822;28;20097;-82
2023/04/30 11:19:46;;;;;;;3.53;3.22;;;17.60;99.90;;;;;;4995243;28;20132;-82
2023/04/30 11:22:15;;;;;;;4.78;4.00;;;17.90;99.90;;;;;;4996616;28;20037;-82
2023/04/30 11:25:08;;;;;;;5.00;3.00;;;18.00;99.90;;;;;;4995721;28;20038;-82
2023/04/30 11:27:35;;;;;;;3.25;2.75;;;18.00;99.90;;;;;;4995980;28;20058;-82
2023/04/30 11:30:04;;;;;;;8.65;7.75;;;18.30;99.90;;;;;;4993748;28;20026;-82
2023/04/30 11:32:34;;;;;;;4.45;3.55;;;18.40;99.90;;;;;;4996099;28;20046;-82
2023/04/30 11:35:03;;;;;;;4.90;3.60;;;18.70;99.90;;;;;;4995383;28;20030;-82
2023/04/30 11:37:31;;;;;;;9.07;8.23;;;19.00;99.90;;;;;;4993866;28;20081;-83
2023/04/30 11:39:59;;;;;;;4.43;3.00;;;18.60;99.90;;;;;;4992660;28;20022;-83
2023/04/30 11:42:25;;;;;;;7.00;3.85;;;18.20;99.90;;;;;;4993392;28;20030;-83
2023/04/30 11:44:50;;;;;;;4.18;3.03;;;17.80;99.90;;;;;;4992853;28;20034;-82
2023/04/30 11:47:16;;;;;;;5.65;3.30;;;17.60;99.90;;;;;;4993167;28;20038;-82
2023/04/30 11:49:42;;;;;;;3.85;2.88;;;17.50;99.90;;;;;;4989622;28;20037;-82
2023/04/30 11:52:08;;;;;;;4.03;2.70;;;17.40;99.90;;;;;;4991702;28;20045;-82
2023/04/30 11:54:37;;;;;;;4.72;3.00;;;17.40;99.90;;;;;;4992940;28;20051;-83
2023/04/30 11:57:04;;;;;;;3.85;2.88;;;17.50;99.90;;;;;;4993084;28;20104;-83
2023/04/30 11:59:31;;;;;;;6.63;3.50;;;17.50;99.90;;;;;;4993136;28;20023;-83
2023/04/30 12:01:57;;;;;;;3.45;3.08;;;17.50;99.90;;;;;;4992784;28;20042;-82
2023/04/30 12:04:23;;;;;;;3.53;2.95;;;17.50;99.90;;;;;;4992662;28;20034;-82
2023/04/30 12:06:49;;;;;;;4.78;2.90;;;17.40;99.90;;;;;;4991783;28;20085;-83
2023/04/30 12:09:14;;;;;;;4.95;3.03;;;17.20;99.90;;;;;;4992350;28;20046;-83
2023/04/30 12:11:40;;;;;;;4.25;2.90;;;17.10;99.90;;;;;;4992174;28;20042;-83
2023/04/30 12:14:09;;;;;;;3.15;2.40;;;17.00;99.90;;;;;;4992750;28;20084;-83
2023/04/30 12:16:49;;;;;;;3.80;3.25;;;17.00;99.90;;;;;;4992459;28;21021;-83
2023/04/30 12:19:18;;;;;;;4.35;3.83;;;16.90;99.90;;;;;;4991350;28;20148;-83
2023/04/30 12:21:46;;;;;;;3.85;3.10;;;16.90;99.90;;;;;;4993416;28;20023;-82
2023/04/30 12:24:12;;;;;;;3.47;2.50;;;16.90;99.90;;;;;;4992190;28;20052;-82
2023/04/30 12:26:39;;;;;;;3.75;2.60;;;16.90;99.90;;;;;;4991319;28;20557;-82
2023/04/30 12:29:10;;;;;;;3.63;2.85;;;16.80;99.90;;;;;;4992225;28;20764;-82
2023/04/30 12:31:36;;;;;;;3.72;2.90;;;16.60;99.90;;;;;;4992396;28;20038;-83
2023/04/30 12:34:04;;;;;;;3.40;2.70;;;16.50;99.90;;;;;;4991288;28;20089;-82
2023/04/30 12:36:31;;;;;;;2.92;2.45;;;16.50;99.90;;;;;;4991417;28;20438;-83
2023/04/30 12:39:07;;;;;;;3.20;2.78;;;16.50;99.90;;;;;;4992476;28;20038;-83
2023/04/30 12:41:43;;;;;;;4.45;3.55;;;16.60;99.90;;;;;;4991454;28;20148;-83
2023/04/30 12:44:22;;;;;;;4.10;2.95;;;16.80;99.90;;;;;;4990498;28;20246;-82
2023/04/30 12:46:50;;;;;;;4.25;2.70;;;16.90;99.90;;;;;;4991246;28;20068;-82
2023/04/30 12:49:22;;;;;;;3.55;2.30;;;16.90;99.90;;;;;;4991141;28;20663;-83